Time;durP1;ratioP1;P1;durP2;ratioP2;P2;SDS_P1;SDS_P2;PMS_P1;PMS_P2;Temp;Humidity;BMP_temperature;BMP_pressure;BME280_temperature;BME280_humidity;BME280_pressure;Samples;Min_cycle;Max_cycle;Signal;HPM_P1;HPM_P2
2023/12/28 00:02:01;;;;;;;13.07;10.05;;;;;;;6.29;70.50;99520.16;5110007;28;20040;-72
2023/12/28 00:04:29;;;;;;;13.88;11.52;;;;;;;6.29;70.28;99528.06;5109963;28;20048;-73
2023/12/28 00:06:56;;;;;;;12.48;10.80;;;;;;;6.30;70.17;99526.28;5109905;28;20296;-72
2023/12/28 00:09:23;;;;;;;15.30;12.43;;;;;;;6.29;70.27;99529.84;5108582;28;20052;-72
2023/12/28 00:11:49;;;;;;;15.27;12.73;;;;;;;6.28;70.21;99533.38;5110076;28;20109;-72
2023/12/28 00:14:16;;;;;;;15.52;11.70;;;;;;;6.09;70.01;99494.53;5109684;28;20177;-72
2023/12/28 00:16:43;;;;;;;14.93;12.10;;;;;;;6.20;70.36;99530.16;5109701;28;20052;-72
2023/12/28 00:19:09;;;;;;;20.08;14.73;;;;;;;6.19;70.24;99528.44;5109645;28;20044;-72
2023/12/28 00:21:37;;;;;;;20.30;14.82;;;;;;;6.16;70.27;99533.81;5109922;28;20044;-72
2023/12/28 00:24:04;;;;;;;18.38;14.55;;;;;;;6.10;70.24;99532.25;5109527;28;20239;-72
2023/12/28 00:26:31;;;;;;;21.60;16.25;;;;;;;6.12;70.21;99543.56;5109549;28;20047;-72
2023/12/28 00:28:58;;;;;;;20.15;14.93;;;;;;;6.13;69.78;99544.44;5109520;28;20097;-72
2023/12/28 00:31:24;;;;;;;17.98;14.65;;;;;;;4.72;70.20;99317.75;5109182;28;20089;-72
2023/12/28 00:33:51;;;;;;;18.73;13.95;;;;;;;6.08;70.04;99536.69;5109668;28;20048;-71
2023/12/28 00:36:17;;;;;;;14.90;12.70;;;;;;;6.08;70.48;99540.19;5109280;28;20035;-71
2023/12/28 00:38:45;;;;;;;17.33;13.05;;;;;;;6.07;70.35;99542.88;5109304;28;20055;-72
2023/12/28 00:41:12;;;;;;;15.75;12.98;;;;;;;6.00;70.98;99546.63;5108969;28;20071;-72
2023/12/28 00:43:39;;;;;;;16.75;12.27;;;;;;;5.97;71.29;99549.34;5108916;28;20299;-72
2023/12/28 00:46:05;;;;;;;15.13;12.10;;;;;;;5.79;71.23;99514.00;5109204;28;20040;-71
2023/12/28 00:48:32;;;;;;;13.98;12.15;;;;;;;6.02;71.29;99558.81;5109705;28;20047;-72
2023/12/28 00:50:59;;;;;;;12.35;10.23;;;;;;;6.01;71.16;99559.72;5108852;28;20040;-72
2023/12/28 00:53:26;;;;;;;13.50;11.00;;;;;;;6.01;71.10;99546.56;5108766;28;20035;-72
2023/12/28 00:55:54;;;;;;;14.27;12.73;;;;;;;6.02;71.25;99545.66;5109260;28;20051;-73
2023/12/28 00:58:21;;;;;;;15.10;12.27;;;;;;;5.75;71.64;99509.75;5108930;28;20055;-72
2023/12/28 01:00:48;;;;;;;13.93;11.02;;;;;;;6.01;71.17;99536.03;5108613;28;20216;-72
2023/12/28 01:03:14;;;;;;;15.07;10.98;;;;;;;6.01;71.24;99537.81;5108768;28;20314;-72
2023/12/28 01:05:41;;;;;;;15.50;12.45;;;;;;;5.97;71.51;99542.31;5108828;28;20040;-72
2023/12/28 01:08:07;;;;;;;17.63;12.50;;;;;;;5.96;71.59;99548.50;5108508;28;20043;-72
2023/12/28 01:10:34;;;;;;;16.30;13.02;;;;;;;5.94;71.67;99538.94;5108325;28;20048;-72
2023/12/28 01:13:02;;;;;;;17.15;11.63;;;;;;;5.88;72.31;99536.50;5108936;28;20040;-72
2023/12/28 01:15:29;;;;;;;15.70;12.70;;;;;;;5.80;72.59;99538.53;5108360;28;20043;-72
2023/12/28 01:17:56;;;;;;;15.30;11.93;;;;;;;5.76;73.10;99543.03;5108639;28;20051;-72
2023/12/28 01:20:22;;;;;;;15.95;12.25;;;;;;;5.81;72.61;99549.00;5108332;28;20043;-72
2023/12/28 01:22:49;;;;;;;14.65;11.75;;;;;;;5.82;72.85;99539.34;5108511;28;20086;-72
2023/12/28 01:25:16;;;;;;;16.60;13.57;;;;;;;5.49;72.94;99493.97;5108757;28;20101;-72
2023/12/28 01:27:43;;;;;;;15.82;12.45;;;;;;;5.78;72.57;99544.69;5108091;28;20048;-73
2023/12/28 01:30:11;;;;;;;17.27;14.18;;;;;;;5.77;72.83;99545.59;5108364;28;20090;-72
2023/12/28 01:32:38;;;;;;;16.77;13.60;;;;;;;5.63;73.95;99550.44;5108562;28;20052;-72
2023/12/28 01:35:05;;;;;;;13.75;11.77;;;;;;;5.41;73.67;99518.72;5107877;28;20090;-72
2023/12/28 01:37:33;;;;;;;14.95;11.35;;;;;;;5.64;73.93;99549.53;5108193;28;20063;-72
2023/12/28 01:40:00;;;;;;;14.93;12.35;;;;;;;4.36;74.05;99342.53;5108130;28;20063;-72
2023/12/28 01:42:26;;;;;;;16.02;12.77;;;;;;;5.62;74.29;99539.97;5108046;28;20047;-72
2023/12/28 01:44:53;;;;;;;14.93;12.68;;;;;;;5.25;75.41;99501.72;5107746;28;20075;-72
2023/12/28 01:47:21;;;;;;;15.70;12.90;;;;;;;5.30;76.53;99539.22;5107956;28;20044;-71
2023/12/28 01:49:48;;;;;;;18.40;14.82;;;;;;;4.65;76.11;99415.13;5107901;28;20235;-72
2023/12/28 01:52:14;;;;;;;18.17;13.50;;;;;;;5.29;75.37;99503.34;5107787;28;20040;-72
2023/12/28 01:54:41;;;;;;;17.02;13.32;;;;;;;4.24;76.38;99337.63;5107719;28;20067;-71
2023/12/28 01:57:08;;;;;;;20.80;14.40;;;;;;;5.33;76.83;99536.50;5107745;28;20040;-71
2023/12/28 01:59:35;;;;;;;18.75;13.95;;;;;;;5.19;77.85;99537.84;5107675;28;20040;-71
2023/12/28 02:02:02;;;;;;;17.33;13.77;;;;;;;5.04;77.40;99502.38;5107647;28;20052;-72
2023/12/28 02:04:31;;;;;;;19.10;14.93;;;;;;;5.11;78.03;99525.78;5106484;28;20044;-72
2023/12/28 02:07:00;;;;;;;17.90;14.23;;;;;;;5.20;77.12;99532.53;5106970;28;20036;-72
2023/12/28 02:09:27;;;;;;;17.55;14.63;;;;;;;5.28;76.53;99521.78;5107224;28;20044;-71
2023/12/28 02:11:55;;;;;;;19.58;15.27;;;;;;;5.34;76.46;99521.59;5107527;28;20051;-71
2023/12/28 02:14:22;;;;;;;21.05;14.77;;;;;;;5.41;75.48;99516.09;5107239;28;20044;-72
2023/12/28 02:16:57;;;;;;;17.65;13.63;;;;;;;5.41;75.17;99510.84;5107134;28;20101;-72
2023/12/28 02:19:41;;;;;;;16.80;13.10;;;;;;;5.41;74.85;99513.47;5106223;28;20085;-72
2023/12/28 02:22:08;;;;;;;17.65;14.30;;;;;;;5.40;74.72;99501.25;5106169;28;20040;-71
2023/12/28 02:27:31;;;;;;;18.90;12.52;;;;;;;5.37;74.73;99498.72;5165733;27;20634;-72
2023/12/28 02:29:58;;;;;;;18.70;14.32;;;;;;;5.40;74.75;99501.25;5164762;27;20118;-72
2023/12/28 02:32:32;;;;;;;18.05;15.02;;;;;;;5.39;74.67;99493.41;5165014;27;20302;-71
2023/12/28 02:35:08;;;;;;;20.15;14.02;;;;;;;5.41;75.01;99492.44;5165223;27;20146;-72
2023/12/28 02:37:35;;;;;;;17.33;15.07;;;;;;;5.42;74.83;99488.03;5164822;27;20042;-72
2023/12/28 02:40:02;;;;;;;19.45;14.85;;;;;;;5.38;75.36;99491.69;5164843;27;20046;-72
2023/12/28 02:42:31;;;;;;;22.83;16.40;;;;;;;5.33;76.64;99499.72;5146542;27;20073;-73
2023/12/28 02:44:58;;;;;;;24.70;16.95;;;;;;;5.27;77.67;99496.41;5165988;27;20359;-72
2023/12/28 02:47:24;;;;;;;20.95;16.63;;;;;;;4.66;78.41;99415.09;5164595;27;20191;-73
2023/12/28 02:49:51;;;;;;;20.60;15.55;;;;;;;5.28;77.65;99506.03;5164908;27;20050;-72
2023/12/28 02:52:18;;;;;;;19.98;15.65;;;;;;;5.20;78.51;99498.38;5164624;27;20043;-72
2023/12/28 02:54:44;;;;;;;18.33;14.90;;;;;;;5.19;78.33;99499.28;5164530;27;20062;-72
2023/12/28 02:57:11;;;;;;;20.38;16.13;;;;;;;5.29;77.42;99500.72;5164480;27;20039;-72
2023/12/28 02:59:39;;;;;;;22.60;16.55;;;;;;;5.31;77.82;99495.41;5146633;27;20039;-72
2023/12/28 03:02:06;;;;;;;21.10;16.60;;;;;;;5.30;77.32;99507.69;5146395;27;20315;-73
2023/12/28 03:04:33;;;;;;;19.98;16.90;;;;;;;5.23;75.86;99469.38;5164355;27;20043;-73
2023/12/28 03:06:59;;;;;;;28.38;19.02;;;;;;;5.36;76.26;99501.38;5146711;27;20046;-68
2023/12/28 03:09:26;;;;;;;24.90;17.77;;;;;;;5.38;76.03;99505.69;5164233;27;20092;-71
2023/12/28 03:11:53;;;;;;;22.23;16.70;;;;;;;5.25;75.90;99474.59;5163923;27;20229;-72
2023/12/28 03:14:21;;;;;;;21.65;16.33;;;;;;;5.42;76.42;99507.31;5163848;27;20051;-72
2023/12/28 03:16:49;;;;;;;22.10;16.10;;;;;;;5.46;76.08;99510.69;5164146;27;20053;-71
2023/12/28 03:19:15;;;;;;;20.27;15.75;;;;;;;5.41;76.56;99504.72;5164010;27;20042;-70
2023/12/28 03:21:42;;;;;;;19.27;15.43;;;;;;;5.36;76.52;99510.13;5163940;27;20043;-70
2023/12/28 03:24:09;;;;;;;22.35;15.82;;;;;;;5.09;76.65;99466.31;5164242;27;20050;-70
2023/12/28 03:26:39;;;;;;;24.15;17.10;;;;;;;5.38;77.02;99512.72;5163462;27;20059;-70
2023/12/28 03:29:06;;;;;;;19.10;15.15;;;;;;;5.38;77.17;99513.56;5163818;27;20287;-70
2023/12/28 03:31:33;;;;;;;24.48;17.95;;;;;;;5.39;77.20;99512.66;5163805;27;20042;-71
2023/12/28 03:34:01;;;;;;;21.25;16.33;;;;;;;5.29;76.91;99490.19;5164111;27;20087;-71
2023/12/28 03:36:27;;;;;;;20.55;15.82;;;;;;;5.45;76.17;99516.84;5163694;27;20321;-71
2023/12/28 03:38:54;;;;;;;18.77;15.65;;;;;;;5.46;76.32;99526.47;5149686;27;20043;-71
2023/12/28 03:41:21;;;;;;;22.83;17.02;;;;;;;5.47;76.35;99528.19;5149728;27;20047;-71
2023/12/28 03:43:48;;;;;;;23.52;17.33;;;;;;;4.93;76.22;99438.81;5149705;27;20047;-71
2023/12/28 03:46:15;;;;;;;22.33;17.27;;;;;;;5.42;76.90;99501.19;5149629;27;20102;-71
2023/12/28 03:48:42;;;;;;;21.65;17.85;;;;;;;5.42;77.11;99514.31;5149358;27;20039;-71
2023/12/28 03:51:14;;;;;;;22.05;16.42;;;;;;;5.44;76.89;99531.78;5131568;27;20088;-71
2023/12/28 03:53:41;;;;;;;23.73;17.13;;;;;;;5.47;76.60;99507.16;5149810;27;20151;-70
2023/12/28 03:56:08;;;;;;;24.27;16.73;;;;;;;5.50;76.69;99500.94;5149204;27;20039;-71
2023/12/28 03:58:34;;;;;;;28.88;19.45;;;;;;;4.54;76.69;99362.97;5149712;27;20043;-71
2023/12/28 04:01:01;;;;;;;22.92;16.17;;;;;;;5.33;76.82;99475.19;5149670;27;20031;-71
2023/12/28 04:03:28;;;;;;;23.48;17.88;;;;;;;5.48;76.63;99508.03;5149044;27;20110;-71
2023/12/28 04:05:54;;;;;;;23.70;17.05;;;;;;;5.48;76.52;99514.13;5148941;27;20318;-71
2023/12/28 04:08:22;;;;;;;26.17;18.33;;;;;;;5.41;76.73;99521.34;5149015;27;20123;-71
2023/12/28 04:10:49;;;;;;;25.48;19.35;;;;;;;5.47;76.54;99524.69;5131533;27;20046;-71
2023/12/28 04:13:15;;;;;;;23.40;17.10;;;;;;;5.44;76.67;99526.50;5148953;27;20051;-71
2023/12/28 04:15:42;;;;;;;29.42;17.85;;;;;;;5.43;76.76;99535.31;5149145;27;20043;-71
2023/12/28 04:18:09;;;;;;;27.27;18.80;;;;;;;5.41;76.99;99534.50;5149366;27;20341;-71
2023/12/28 04:20:36;;;;;;;23.98;17.70;;;;;;;5.41;76.61;99528.38;5148995;27;20344;-72
2023/12/28 04:23:02;;;;;;;23.92;17.38;;;;;;;5.43;76.20;99532.69;5149005;27;20054;-71
2023/12/28 04:25:30;;;;;;;22.95;17.20;;;;;;;5.45;76.11;99530.88;5148426;27;20059;-72
2023/12/28 04:27:57;;;;;;;25.58;16.83;;;;;;;5.42;76.29;99538.84;5148842;27;20050;-71
2023/12/28 04:30:24;;;;;;;27.58;18.27;;;;;;;5.39;76.76;99538.09;5148841;27;20096;-71
2023/12/28 04:32:49;;;;;;;27.00;19.17;;;;;;;5.33;77.07;99533.88;5148785;27;20054;-71
2023/12/28 04:35:16;;;;;;;24.52;17.50;;;;;;;5.33;76.90;99535.66;5130503;27;20043;-71
2023/12/28 04:37:43;;;;;;;24.20;18.20;;;;;;;5.29;77.18;99540.13;5148698;27;20080;-71
2023/12/28 04:40:10;;;;;;;22.75;17.67;;;;;;;5.30;77.18;99541.84;5148645;27;20043;-71
2023/12/28 04:42:38;;;;;;;23.50;17.60;;;;;;;5.29;77.27;99547.16;5148463;27;20051;-71
2023/12/28 04:45:06;;;;;;;23.75;17.73;;;;;;;5.35;77.12;99553.09;5148541;27;20066;-72
2023/12/28 04:47:32;;;;;;;21.60;17.02;;;;;;;5.39;76.61;99564.38;5148101;27;20054;-71
2023/12/28 04:49:59;;;;;;;23.50;17.55;;;;;;;5.38;76.31;99568.75;5129555;27;20054;-72
2023/12/28 04:52:26;;;;;;;24.75;17.83;;;;;;;5.37;76.53;99567.03;5148381;27;20054;-72
2023/12/28 04:54:52;;;;;;;23.75;18.20;;;;;;;5.18;76.33;99536.13;5148039;27;20099;-72
2023/12/28 04:57:19;;;;;;;24.27;17.58;;;;;;;5.35;76.25;99565.38;5148594;27;20058;-71
2023/12/28 04:59:47;;;;;;;19.75;15.55;;;;;;;5.35;76.29;99563.59;5148287;27;20050;-72
2023/12/28 05:02:14;;;;;;;22.73;16.48;;;;;;;5.29;76.52;99562.94;5148168;27;20043;-72
2023/12/28 05:04:40;;;;;;;21.60;16.77;;;;;;;5.27;76.91;99570.84;5148384;27;20051;-72
2023/12/28 05:07:07;;;;;;;22.20;15.90;;;;;;;5.31;76.54;99574.25;5148265;27;20096;-72
2023/12/28 05:09:33;;;;;;;24.23;17.08;;;;;;;5.26;76.56;99576.16;5148005;27;20043;-72
2023/12/28 05:12:00;;;;;;;22.90;17.70;;;;;;;5.24;77.09;99572.72;5147982;27;20057;-72
2023/12/28 05:14:27;;;;;;;22.10;16.80;;;;;;;5.29;76.59;99574.31;5147774;27;20234;-72
2023/12/28 05:16:55;;;;;;;24.20;17.65;;;;;;;5.29;76.61;99576.94;5147863;27;20039;-72
2023/12/28 05:19:22;;;;;;;22.73;17.15;;;;;;;5.24;76.94;99573.56;5147647;27;20051;-72
2023/12/28 05:21:48;;;;;;;22.83;16.30;;;;;;;5.30;76.66;99576.03;5147840;27;20043;-72
2023/12/28 05:24:15;;;;;;;25.38;17.65;;;;;;;5.31;76.38;99569.84;5147757;27;20136;-72
2023/12/28 05:26:41;;;;;;;21.98;15.75;;;;;;;5.31;76.53;99576.88;5147379;27;20244;-72
2023/12/28 05:29:08;;;;;;;27.42;17.60;;;;;;;4.47;76.40;99427.03;5147674;27;20039;-72
2023/12/28 05:31:35;;;;;;;27.85;19.10;;;;;;;5.33;76.58;99575.06;5147587;27;20050;-72
2023/12/28 05:34:04;;;;;;;23.58;17.02;;;;;;;5.30;76.78;99570.75;5147624;27;20106;-72
2023/12/28 05:36:30;;;;;;;25.73;16.63;;;;;;;5.29;77.33;99552.41;5147566;27;20039;-72
2023/12/28 05:38:57;;;;;;;27.38;19.77;;;;;;;5.24;77.92;99552.56;5147552;27;20043;-72
2023/12/28 05:41:23;;;;;;;25.80;17.80;;;;;;;5.27;77.46;99556.84;5147533;27;20055;-72
2023/12/28 05:43:50;;;;;;;25.77;20.05;;;;;;;5.30;77.34;99577.78;5147667;27;20303;-72
2023/12/28 05:46:17;;;;;;;26.95;19.55;;;;;;;5.34;76.97;99584.66;5147268;27;20088;-72
2023/12/28 05:48:43;;;;;;;29.33;20.52;;;;;;;5.34;77.28;99587.31;5147343;27;20050;-72
2023/12/28 05:51:11;;;;;;;26.65;20.67;;;;;;;5.23;78.31;99578.88;5147033;27;20299;-72
2023/12/28 05:53:38;;;;;;;25.45;18.88;;;;;;;4.95;78.04;99561.31;5147461;27;20039;-72
2023/12/28 05:56:05;;;;;;;24.88;17.77;;;;;;;5.17;77.73;99574.66;5147257;27;20050;-72
2023/12/28 05:58:32;;;;;;;24.15;17.58;;;;;;;5.22;77.39;99572.75;5146987;27;20088;-72
2023/12/28 06:00:59;;;;;;;22.92;16.40;;;;;;;5.16;77.22;99578.19;5146745;27;20203;-72
2023/12/28 06:03:28;;;;;;;23.42;16.38;;;;;;;5.07;77.51;99588.97;5146620;27;20080;-72
2023/12/28 06:05:55;;;;;;;22.27;16.27;;;;;;;5.13;76.86;99592.28;5146760;27;20378;-72
2023/12/28 06:08:23;;;;;;;24.17;16.83;;;;;;;5.12;77.04;99602.84;5146747;27;20058;-72
2023/12/28 06:10:50;;;;;;;24.02;17.30;;;;;;;5.07;77.39;99597.72;5146672;27;20096;-72
2023/12/28 06:13:16;;;;;;;23.63;16.63;;;;;;;5.07;77.38;99602.13;5146978;27;20340;-72
2023/12/28 06:15:44;;;;;;;21.58;15.82;;;;;;;5.09;77.17;99598.53;5146935;27;20091;-72
2023/12/28 06:18:10;;;;;;;26.08;17.52;;;;;;;5.13;77.06;99599.31;5147139;27;20106;-72
2023/12/28 06:20:37;;;;;;;24.65;18.63;;;;;;;5.07;77.35;99596.84;5129109;28;20043;-72
2023/12/28 06:23:04;;;;;;;26.40;17.77;;;;;;;5.00;77.72;99597.94;5146890;27;20054;-72
2023/12/28 06:25:32;;;;;;;25.10;18.13;;;;;;;5.03;77.04;99592.59;5146551;28;20112;-72
2023/12/28 06:27:59;;;;;;;28.25;19.90;;;;;;;4.99;77.26;99599.72;5146727;28;20034;-72
2023/12/28 06:30:25;;;;;;;30.17;19.50;;;;;;;4.90;77.67;99597.34;5128861;28;20043;-72
2023/12/28 06:32:52;;;;;;;26.15;18.42;;;;;;;5.00;77.18;99593.56;5129274;28;20043;-71
2023/12/28 06:35:19;;;;;;;24.90;17.77;;;;;;;5.00;77.19;99604.06;5146765;28;20039;-72
2023/12/28 06:37:45;;;;;;;29.35;18.35;;;;;;;4.95;77.42;99605.09;5146456;28;20040;-72
2023/12/28 06:40:13;;;;;;;26.55;18.27;;;;;;;4.92;77.29;99602.56;5146658;28;20035;-72
2023/12/28 06:42:43;;;;;;;24.88;18.65;;;;;;;4.92;77.37;99603.41;5146669;28;20088;-72
2023/12/28 06:45:10;;;;;;;25.30;17.38;;;;;;;4.93;77.41;99605.13;5146932;28;20164;-72
2023/12/28 06:47:37;;;;;;;29.80;19.42;;;;;;;4.92;77.23;99602.56;5146577;28;20047;-72
2023/12/28 06:50:04;;;;;;;29.73;20.48;;;;;;;4.94;77.32;99601.59;5146222;28;20035;-72
2023/12/28 06:52:31;;;;;;;26.25;18.73;;;;;;;4.92;77.69;99616.53;5146467;28;20100;-72
2023/12/28 06:54:58;;;;;;;28.13;19.98;;;;;;;4.89;77.60;99618.38;5146515;28;20062;-72
2023/12/28 06:57:25;;;;;;;26.70;17.33;;;;;;;4.86;77.79;99610.56;5146185;28;20347;-72
2023/12/28 06:59:54;;;;;;;26.13;17.73;;;;;;;4.87;77.51;99628.06;5146555;28;20054;-72
2023/12/28 07:02:21;;;;;;;24.35;18.83;;;;;;;4.46;77.45;99557.41;5146554;28;20059;-73
2023/12/28 07:04:47;;;;;;;27.60;17.05;;;;;;;4.87;77.21;99620.16;5146124;28;20295;-73
2023/12/28 07:07:14;;;;;;;27.20;17.65;;;;;;;4.82;77.27;99633.44;5146208;28;20039;-70
2023/12/28 07:09:41;;;;;;;27.83;19.23;;;;;;;4.81;77.96;99634.34;5128186;28;20356;-71
2023/12/28 07:12:07;;;;;;;26.85;19.20;;;;;;;4.75;77.66;99632.75;5146702;27;20043;-71
2023/12/28 07:14:36;;;;;;;29.83;18.40;;;;;;;4.72;77.80;99627.56;5149657;27;20055;-71
2023/12/28 07:17:04;;;;;;;34.00;20.48;;;;;;;4.13;77.76;99553.00;5150559;27;20047;-70
2023/12/28 07:19:31;;;;;;;31.00;18.88;;;;;;;4.57;77.90;99598.25;5150221;27;20099;-71
2023/12/28 07:21:57;;;;;;;27.20;18.92;;;;;;;4.72;77.96;99627.56;5149736;27;20043;-71
2023/12/28 07:24:24;;;;;;;25.75;17.45;;;;;;;4.68;77.69;99638.19;5149720;27;20054;-71
2023/12/28 07:26:51;;;;;;;26.98;17.60;;;;;;;4.72;77.72;99637.22;5149497;27;20059;-71
2023/12/28 07:29:17;;;;;;;27.13;18.70;;;;;;;4.71;77.79;99635.47;5150251;27;20051;-70
2023/12/28 07:31:45;;;;;;;26.38;17.52;;;;;;;4.67;77.62;99644.34;5150139;27;20038;-70
2023/12/28 07:34:13;;;;;;;30.30;17.52;;;;;;;4.52;77.46;99614.13;5150151;27;20143;-71
2023/12/28 07:36:43;;;;;;;26.40;18.25;;;;;;;4.38;77.47;99601.34;5149434;27;20073;-70
2023/12/28 07:39:10;;;;;;;24.42;16.08;;;;;;;4.63;77.86;99642.69;5149679;27;20039;-71
2023/12/28 07:41:37;;;;;;;28.17;17.88;;;;;;;4.56;78.22;99630.66;5149491;27;20110;-72
2023/12/28 07:44:03;;;;;;;28.30;19.35;;;;;;;4.54;78.29;99640.31;5149988;27;20111;-72
2023/12/28 07:46:30;;;;;;;27.42;18.20;;;;;;;4.58;78.05;99647.22;5149707;27;20108;-72
2023/12/28 07:48:56;;;;;;;26.33;18.38;;;;;;;4.51;78.43;99645.66;5149759;27;20043;-72
2023/12/28 07:51:24;;;;;;;23.88;16.65;;;;;;;4.52;78.43;99636.88;5149894;27;20092;-71
2023/12/28 07:53:51;;;;;;;25.90;17.85;;;;;;;4.56;78.23;99635.91;5149346;27;20035;-71
2023/12/28 07:56:18;;;;;;;27.73;18.38;;;;;;;4.63;79.52;99634.81;5149406;27;20263;-71
2023/12/28 07:58:44;;;;;;;25.00;17.27;;;;;;;4.59;78.74;99644.56;5149387;27;20043;-71
2023/12/28 08:01:11;;;;;;;25.92;18.42;;;;;;;4.60;78.47;99651.53;5149359;27;20043;-71
2023/12/28 08:03:38;;;;;;;28.42;18.13;;;;;;;4.53;78.79;99646.47;5149314;27;20102;-72
2023/12/28 08:06:05;;;;;;;27.88;18.23;;;;;;;4.52;79.12;99644.75;5149567;27;20055;-71
2023/12/28 08:08:34;;;;;;;29.65;19.50;;;;;;;4.55;78.69;99645.53;5148956;27;20043;-72
2023/12/28 08:11:00;;;;;;;30.75;17.90;;;;;;;4.46;79.08;99648.41;5148749;27;20043;-72
2023/12/28 08:13:27;;;;;;;24.90;18.08;;;;;;;4.42;79.08;99650.22;5149097;27;20057;-72
2023/12/28 08:15:53;;;;;;;27.88;17.20;;;;;;;4.45;79.01;99651.91;5148826;27;20355;-71
2023/12/28 08:18:20;;;;;;;27.85;19.02;;;;;;;4.47;78.84;99663.25;5148828;27;20039;-72
2023/12/28 08:20:47;;;;;;;24.42;16.88;;;;;;;4.42;79.07;99659.88;5149014;27;20055;-72
2023/12/28 08:23:14;;;;;;;30.58;19.38;;;;;;;4.51;78.64;99658.78;5148567;27;20073;-72
2023/12/28 08:25:42;;;;;;;31.38;18.90;;;;;;;4.31;78.86;99627.78;5148172;27;20311;-72
2023/12/28 08:28:08;;;;;;;28.83;18.00;;;;;;;4.42;79.22;99654.63;5148995;27;20050;-71
2023/12/28 08:30:35;;;;;;;33.22;20.27;;;;;;;4.39;79.38;99660.81;5148561;27;20410;-71
2023/12/28 08:33:01;;;;;;;29.33;19.70;;;;;;;4.39;79.45;99659.94;5148646;27;20042;-72
2023/12/28 08:35:28;;;;;;;33.10;19.52;;;;;;;4.32;79.70;99666.25;5148960;27;20088;-72
2023/12/28 08:37:55;;;;;;;30.17;18.83;;;;;;;4.28;nan;99661.97;5148929;27;20046;-72
2023/12/28 08:40:21;;;;;;;27.70;18.58;;;;;;;4.26;79.94;99671.66;5148918;27;20039;-72
2023/12/28 08:42:49;;;;;;;33.63;20.75;;;;;;;4.33;79.37;99675.84;5148571;27;20051;-71
2023/12/28 08:45:16;;;;;;;28.52;18.42;;;;;;;4.30;79.13;99674.16;5148452;27;20043;-72
2023/12/28 08:47:42;;;;;;;29.10;19.70;;;;;;;4.27;79.12;99682.09;5148059;27;20092;-71
2023/12/28 08:50:10;;;;;;;29.52;18.38;;;;;;;4.38;78.94;99684.47;5148068;27;20307;-72
2023/12/28 08:52:37;;;;;;;31.90;18.55;;;;;;;4.37;78.82;99688.00;5148042;27;20062;-71
2023/12/28 08:55:05;;;;;;;27.63;18.55;;;;;;;4.29;78.86;99696.06;5147967;27;20043;-72
2023/12/28 08:57:32;;;;;;;26.27;17.70;;;;;;;4.17;79.47;99686.69;5130441;27;20039;-72
2023/12/28 09:00:02;;;;;;;28.25;17.15;;;;;;;4.15;79.27;99687.63;5147856;27;20301;-71
2023/12/28 09:02:29;;;;;;;27.45;16.45;;;;;;;4.21;79.04;99691.88;5148042;27;20129;-72
2023/12/28 09:04:56;;;;;;;27.30;16.95;;;;;;;4.07;79.65;99700.91;5147807;27;20073;-72
2023/12/28 09:07:22;;;;;;;25.52;17.00;;;;;;;4.06;79.91;99690.47;5148014;27;20042;-72
2023/12/28 09:09:49;;;;;;;28.33;16.58;;;;;;;4.07;79.73;99690.41;5129744;27;20058;-72
2023/12/28 09:12:16;;;;;;;28.33;17.23;;;;;;;4.01;80.05;99701.06;5148387;27;20103;-72
2023/12/28 09:14:42;;;;;;;23.73;16.02;;;;;;;4.11;79.44;99689.44;5147851;27;20196;-72
2023/12/28 09:17:10;;;;;;;24.35;15.63;;;;;;;4.10;79.24;99699.97;5129734;27;20039;-72
2023/12/28 09:19:37;;;;;;;25.67;16.52;;;;;;;4.09;79.21;99688.63;5148072;27;20046;-72
2023/12/28 09:22:05;;;;;;;26.75;16.15;;;;;;;3.89;79.30;99669.88;5147648;27;20042;-71
2023/12/28 09:24:31;;;;;;;26.73;17.98;;;;;;;3.97;80.19;99698.53;5147691;27;20039;-72
2023/12/28 09:26:58;;;;;;;26.52;18.42;;;;;;;3.91;80.71;99699.53;5147247;27;20059;-72
2023/12/28 09:29:25;;;;;;;31.80;18.92;;;;;;;3.90;80.39;99700.44;5147477;27;20039;-72
2023/12/28 09:31:51;;;;;;;29.42;18.10;;;;;;;3.96;79.88;99694.19;5129553;27;20083;-72
2023/12/28 09:34:19;;;;;;;28.27;16.98;;;;;;;4.08;79.27;99688.66;5147459;27;20051;-72
2023/12/28 09:36:46;;;;;;;26.92;17.20;;;;;;;4.17;79.02;99691.94;5146785;27;20043;-72
2023/12/28 09:39:13;;;;;;;25.40;16.88;;;;;;;4.10;79.37;99685.09;5147445;27;20084;-72
2023/12/28 09:41:43;;;;;;;25.35;16.52;;;;;;;3.81;78.92;99637.72;5147328;27;20054;-72
2023/12/28 09:44:13;;;;;;;23.17;15.55;;;;;;;4.18;78.78;99683.16;5147454;27;20035;-72
2023/12/28 09:46:42;;;;;;;26.58;17.23;;;;;;;4.21;78.50;99681.41;5147405;27;20051;-72
2023/12/28 09:49:09;;;;;;;30.65;17.60;;;;;;;4.02;79.28;99689.66;5147156;27;20045;-72
2023/12/28 09:51:37;;;;;;;25.10;15.07;;;;;;;3.93;78.92;99650.53;5147199;27;20050;-72
2023/12/28 09:54:05;;;;;;;23.48;16.35;;;;;;;4.08;79.02;99680.78;5146973;27;20050;-72
2023/12/28 09:56:32;;;;;;;26.35;17.65;;;;;;;4.10;78.88;99673.75;5147178;27;20043;-72
2023/12/28 09:59:00;;;;;;;23.30;15.18;;;;;;;4.05;79.19;99671.22;5146925;27;20043;-72
2023/12/28 10:01:27;;;;;;;22.38;15.40;;;;;;;3.79;79.31;99632.50;5146645;27;20107;-71
2023/12/28 10:03:53;;;;;;;24.35;16.33;;;;;;;4.00;78.92;99661.75;5146761;27;20353;-72
2023/12/28 10:06:21;;;;;;;24.38;15.93;;;;;;;3.91;79.55;99661.97;5147085;27;20054;-72
2023/12/28 10:08:50;;;;;;;24.23;14.77;;;;;;;3.47;78.83;99561.63;5146878;27;20035;-72
2023/12/28 10:11:18;;;;;;;23.35;16.38;;;;;;;4.08;78.65;99647.56;5147007;27;20073;-72
2023/12/28 10:13:45;;;;;;;24.65;15.70;;;;;;;4.07;78.66;99645.84;5147005;27;20043;-72
2023/12/28 10:16:12;;;;;;;24.10;16.40;;;;;;;4.12;78.39;99649.22;5146667;27;20043;-72
2023/12/28 10:18:41;;;;;;;23.58;16.20;;;;;;;4.19;78.39;99644.66;5146914;27;20035;-72
2023/12/28 10:21:09;;;;;;;25.60;16.80;;;;;;;4.26;78.12;99645.41;5147246;27;20106;-72
2023/12/28 10:23:36;;;;;;;23.25;17.13;;;;;;;4.28;78.07;99644.47;5146555;27;20111;-72
2023/12/28 10:26:05;;;;;;;24.92;17.17;;;;;;;4.12;78.63;99636.09;5146487;28;20100;-72
2023/12/28 10:28:33;;;;;;;25.45;16.27;;;;;;;4.12;78.55;99636.09;5146565;28;20049;-72
2023/12/28 10:30:59;;;;;;;26.27;16.40;;;;;;;4.21;78.48;99634.16;5146855;28;20096;-72
2023/12/28 10:33:26;;;;;;;23.77;15.65;;;;;;;4.00;78.73;99596.19;5146338;28;20089;-72
2023/12/28 10:35:54;;;;;;;24.52;16.20;;;;;;;4.24;78.51;99637.56;5146497;28;20039;-72
2023/12/28 10:38:20;;;;;;;25.17;16.20;;;;;;;4.25;78.48;99641.06;5146293;28;20035;-72
2023/12/28 10:40:49;;;;;;;23.05;15.20;;;;;;;4.23;78.49;99624.50;5146356;28;20043;-72
2023/12/28 10:43:18;;;;;;;22.70;15.13;;;;;;;4.23;78.43;99620.13;5146167;28;20288;-72
2023/12/28 10:45:48;;;;;;;21.30;15.27;;;;;;;4.16;78.54;99614.13;5146348;28;20115;-72
2023/12/28 10:48:14;;;;;;;22.73;14.88;;;;;;;4.15;78.47;99620.28;5148786;27;20039;-72
2023/12/28 10:50:44;;;;;;;22.60;14.82;;;;;;;4.18;78.47;99619.34;5150653;27;20152;-72
2023/12/28 10:53:31;;;;;;;26.27;16.55;;;;;;;4.18;78.72;99620.19;5150868;27;20299;-72
2023/12/28 10:56:11;;;;;;;24.38;16.10;;;;;;;4.17;78.39;99618.47;5150700;27;20051;-72
2023/12/28 10:58:48;;;;;;;27.50;15.98;;;;;;;4.16;78.55;99622.00;5150551;27;20054;-72
2023/12/28 11:01:21;;;;;;;22.42;16.02;;;;;;;4.08;79.23;99618.69;5150499;27;20110;-72
2023/12/28 11:03:53;;;;;;;25.77;16.73;;;;;;;4.22;79.76;99610.53;5150412;27;20104;-72
2023/12/28 11:06:20;;;;;;;25.38;16.77;;;;;;;4.12;79.21;99616.88;5150163;27;20237;-72
2023/12/28 11:08:51;;;;;;;23.52;15.60;;;;;;;4.14;79.12;99618.56;5150389;27;20225;-72
2023/12/28 11:11:19;;;;;;;26.30;16.90;;;;;;;4.13;79.20;99616.81;5150386;27;20047;-72
2023/12/28 11:13:52;;;;;;;22.20;15.77;;;;;;;4.00;79.50;99612.78;5150105;27;20039;-72
2023/12/28 11:16:20;;;;;;;24.35;16.20;;;;;;;4.04;79.46;99600.47;5150321;27;20221;-72
2023/12/28 11:18:47;;;;;;;26.42;17.38;;;;;;;3.84;79.12;99572.09;5149947;27;20035;-72
2023/12/28 11:21:15;;;;;;;21.88;14.93;;;;;;;4.03;79.13;99593.50;5149925;27;20239;-72
2023/12/28 11:23:43;;;;;;;24.33;15.55;;;;;;;3.99;79.32;99599.72;5132197;27;20050;-72
2023/12/28 11:26:17;;;;;;;22.88;15.05;;;;;;;4.03;79.26;99599.59;5149667;27;20079;-72
2023/12/28 11:28:43;;;;;;;22.48;15.40;;;;;;;4.07;78.98;99597.75;5149819;27;20339;-72